Page, Arizona
Current Conditions -  °F | °C
As of 2:53 PM on Saturday 25 Oct 2014 (Local Time) from KPGA Reporting Station
Clear Clear  
Wind Chill: 77°   Ceiling: Unl
Heat Index: 77°   Visibility: 10mi
Dew Point: 35°   Wind: 6mph
Humidity: 22%   Direction: 20°NNE
Pressure: 30.12"   Gusts: NA
Location:  36.92°N, 111.46°W
Report Text: KPGA 252053Z AUTO 02005KT 10SM CLR 25/02 A3012 RMK AO2 SLP151 T02500017 58029
Loading
Personal Weather Stations






























Interactive Weather Map
Tropical Storm Tracking
New forecast layout! Learn more

10-Day Weather Forecast

Advertisements
Track Severe Weather on mobile